Terminal Aerodrome Forecast
Issued by NWS

Home | Current Version | Previous Version | Text Only | Print | Product List | Glossary On
Versions: 1 2 3 4 5 6 7 8 9 10 11 12 13 14
000
FTUS41 KPHI 061132
TAFPNE
TAF
KPNE 061132Z 0612/0712 05008KT P6SM BKN050
      TEMPO 0613/0617 -SHRA
     FM062100 10006KT P6SM BKN050
     FM070200 VRB03KT P6SM BKN040=

USA.gov is the U.S. government's official web portal to all federal, state and local government web resources and services.